sensor_id;sensor_type;location;lat;lon;timestamp;pressure;altitude;pressure_sealevel;temperature;humidity
28935;BME280;16044;52.726;-2.108;2023-02-01T00:00:31;101317.41;;;4.67;84.41
28935;BME280;16044;52.726;-2.108;2023-02-01T00:03:00;101309.47;;;4.66;84.55
28935;BME280;16044;52.726;-2.108;2023-02-01T00:05:27;101306.56;;;4.69;84.14
28935;BME280;16044;52.726;-2.108;2023-02-01T00:07:53;101305.06;;;4.65;83.91
28935;BME280;16044;52.726;-2.108;2023-02-01T00:10:21;101310.69;;;4.62;83.85
28935;BME280;16044;52.726;-2.108;2023-02-01T00:12:48;101315.44;;;4.58;83.82
28935;BME280;16044;52.726;-2.108;2023-02-01T00:15:15;101316.75;;;4.53;84.11
28935;BME280;16044;52.726;-2.108;2023-02-01T00:17:42;101310.63;;;4.51;84.36
28935;BME280;16044;52.726;-2.108;2023-02-01T00:20:09;101315.28;;;4.48;84.20
28935;BME280;16044;52.726;-2.108;2023-02-01T00:22:36;101312.94;;;4.44;84.40
28935;BME280;16044;52.726;-2.108;2023-02-01T00:25:03;101315.75;;;4.42;84.55
28935;BME280;16044;52.726;-2.108;2023-02-01T00:27:31;101317.44;;;4.43;84.74
28935;BME280;16044;52.726;-2.108;2023-02-01T00:29:57;101318.28;;;4.44;85.18
28935;BME280;16044;52.726;-2.108;2023-02-01T00:32:24;101320.66;;;4.48;85.58
28935;BME280;16044;52.726;-2.108;2023-02-01T00:34:51;101321.91;;;4.56;85.45
28935;BME280;16044;52.726;-2.108;2023-02-01T00:37:18;101310.91;;;4.59;85.41
28935;BME280;16044;52.726;-2.108;2023-02-01T00:39:45;101315.19;;;4.61;85.17
28935;BME280;16044;52.726;-2.108;2023-02-01T00:42:12;101308.94;;;4.61;85.31
28935;BME280;16044;52.726;-2.108;2023-02-01T00:44:39;101311.41;;;4.64;85.37
28935;BME280;16044;52.726;-2.108;2023-02-01T00:47:05;101313.63;;;4.70;85.12
28935;BME280;16044;52.726;-2.108;2023-02-01T00:49:32;101321.66;;;4.70;85.08
28935;BME280;16044;52.726;-2.108;2023-02-01T00:51:59;101311.03;;;4.68;85.01
28935;BME280;16044;52.726;-2.108;2023-02-01T00:54:26;101315.56;;;4.68;85.26
28935;BME280;16044;52.726;-2.108;2023-02-01T00:56:53;101303.00;;;4.68;85.55
28935;BME280;16044;52.726;-2.108;2023-02-01T00:59:20;101301.03;;;4.71;85.63
28935;BME280;16044;52.726;-2.108;2023-02-01T01:01:47;101298.97;;;4.74;85.32
28935;BME280;16044;52.726;-2.108;2023-02-01T01:04:14;101309.50;;;4.77;85.28
28935;BME280;16044;52.726;-2.108;2023-02-01T01:06:41;101306.69;;;4.79;85.45
28935;BME280;16044;52.726;-2.108;2023-02-01T01:09:09;101313.16;;;4.87;85.23
28935;BME280;16044;52.726;-2.108;2023-02-01T01:11:37;101307.78;;;4.87;85.15
28935;BME280;16044;52.726;-2.108;2023-02-01T01:14:06;101296.31;;;4.85;84.89
28935;BME280;16044;52.726;-2.108;2023-02-01T01:16:34;101300.59;;;4.77;85.10
28935;BME280;16044;52.726;-2.108;2023-02-01T01:19:01;101319.72;;;4.72;85.15
28935;BME280;16044;52.726;-2.108;2023-02-01T01:21:29;101325.19;;;4.71;85.31
28935;BME280;16044;52.726;-2.108;2023-02-01T01:23:56;101319.47;;;4.64;85.71
28935;BME280;16044;52.726;-2.108;2023-02-01T01:26:25;101311.53;;;4.62;85.67
28935;BME280;16044;52.726;-2.108;2023-02-01T01:28:58;101310.28;;;4.55;85.96
28935;BME280;16044;52.726;-2.108;2023-02-01T01:31:26;101312.34;;;4.52;86.07
28935;BME280;16044;52.726;-2.108;2023-02-01T01:33:56;101310.13;;;4.45;86.26
28935;BME280;16044;52.726;-2.108;2023-02-01T01:36:25;101312.19;;;4.42;86.04
28935;BME280;16044;52.726;-2.108;2023-02-01T01:38:53;101308.25;;;4.35;86.35
28935;BME280;16044;52.726;-2.108;2023-02-01T01:41:26;101308.50;;;4.32;86.37
28935;BME280;16044;52.726;-2.108;2023-02-01T01:44:06;101305.78;;;4.20;87.39
28935;BME280;16044;52.726;-2.108;2023-02-01T01:47:11;101297.72;;;4.20;87.61
28935;BME280;16044;52.726;-2.108;2023-02-01T01:49:39;101304.28;;;4.16;88.43
28935;BME280;16044;52.726;-2.108;2023-02-01T01:52:06;101306.63;;;4.21;88.70
28935;BME280;16044;52.726;-2.108;2023-02-01T01:54:37;101292.25;;;4.22;88.97
28935;BME280;16044;52.726;-2.108;2023-02-01T01:57:14;101288.09;;;4.29;89.17
28935;BME280;16044;52.726;-2.108;2023-02-01T01:59:50;101287.78;;;4.34;89.43
28935;BME280;16044;52.726;-2.108;2023-02-01T02:02:21;101286.66;;;4.36;89.77
28935;BME280;16044;52.726;-2.108;2023-02-01T02:04:48;101277.28;;;4.42;89.43
28935;BME280;16044;52.726;-2.108;2023-02-01T02:07:17;101261.28;;;4.40;89.52
28935;BME280;16044;52.726;-2.108;2023-02-01T02:09:49;101270.44;;;4.38;89.45
28935;BME280;16044;52.726;-2.108;2023-02-01T02:12:26;101276.66;;;4.38;89.14
28935;BME280;16044;52.726;-2.108;2023-02-01T02:14:53;101268.88;;;4.35;89.17
28935;BME280;16044;52.726;-2.108;2023-02-01T02:20:46;101267.84;;;4.25;90.07
28935;BME280;16044;52.726;-2.108;2023-02-01T02:32:16;101282.72;;;4.29;90.65
28935;BME280;16044;52.726;-2.108;2023-02-01T02:35:05;101280.81;;;4.31;90.62
28935;BME280;16044;52.726;-2.108;2023-02-01T02:37:53;101281.31;;;4.36;90.62
28935;BME280;16044;52.726;-2.108;2023-02-01T02:40:29;101291.06;;;4.37;90.69
28935;BME280;16044;52.726;-2.108;2023-02-01T02:43:08;101278.91;;;4.44;90.54
28935;BME280;16044;52.726;-2.108;2023-02-01T02:46:04;101274.91;;;4.50;90.43
28935;BME280;16044;52.726;-2.108;2023-02-01T02:51:29;101254.00;;;4.54;89.85
28935;BME280;16044;52.726;-2.108;2023-02-01T02:54:29;101266.47;;;4.55;89.75
28935;BME280;16044;52.726;-2.108;2023-02-01T02:57:19;101275.16;;;4.58;89.36
28935;BME280;16044;52.726;-2.108;2023-02-01T03:00:14;101276.09;;;4.57;89.49
28935;BME280;16044;52.726;-2.108;2023-02-01T03:03:01;101272.06;;;4.52;89.36
28935;BME280;16044;52.726;-2.108;2023-02-01T03:05:48;101274.41;;;4.56;89.07
28935;BME280;16044;52.726;-2.108;2023-02-01T03:08:25;101274.63;;;4.53;89.06
28935;BME280;16044;52.726;-2.108;2023-02-01T03:11:06;101274.00;;;4.49;88.90
28935;BME280;16044;52.726;-2.108;2023-02-01T03:21:56;101272.50;;;4.34;89.10
28935;BME280;16044;52.726;-2.108;2023-02-01T03:24:44;101276.03;;;4.35;88.89
28935;BME280;16044;52.726;-2.108;2023-02-01T03:30:20;101274.56;;;4.30;89.05
28935;BME280;16044;52.726;-2.108;2023-02-01T03:32:55;101280.56;;;4.34;89.10
28935;BME280;16044;52.726;-2.108;2023-02-01T03:35:44;101278.41;;;4.39;88.63
28935;BME280;16044;52.726;-2.108;2023-02-01T03:43:43;101268.97;;;4.34;88.52
28935;BME280;16044;52.726;-2.108;2023-02-01T03:46:24;101259.34;;;4.31;88.48
28935;BME280;16044;52.726;-2.108;2023-02-01T03:48:55;101262.25;;;4.28;88.46
28935;BME280;16044;52.726;-2.108;2023-02-01T03:51:23;101253.56;;;4.24;88.40
28935;BME280;16044;52.726;-2.108;2023-02-01T03:53:51;101250.50;;;4.18;88.45
28935;BME280;16044;52.726;-2.108;2023-02-01T03:56:21;101248.78;;;4.17;88.18
28935;BME280;16044;52.726;-2.108;2023-02-01T03:58:51;101251.06;;;4.10;88.60
28935;BME280;16044;52.726;-2.108;2023-02-01T04:01:30;101256.44;;;4.10;88.47
28935;BME280;16044;52.726;-2.108;2023-02-01T04:03:57;101250.47;;;4.06;88.59
28935;BME280;16044;52.726;-2.108;2023-02-01T04:06:25;101249.13;;;4.01;88.77
28935;BME280;16044;52.726;-2.108;2023-02-01T04:08:52;101250.28;;;3.97;88.74
28935;BME280;16044;52.726;-2.108;2023-02-01T04:11:19;101248.91;;;3.91;88.79
28935;BME280;16044;52.726;-2.108;2023-02-01T04:13:45;101244.75;;;3.87;88.83
28935;BME280;16044;52.726;-2.108;2023-02-01T04:16:12;101242.31;;;3.84;89.05
28935;BME280;16044;52.726;-2.108;2023-02-01T04:18:39;101241.81;;;3.79;89.18
28935;BME280;16044;52.726;-2.108;2023-02-01T04:21:06;101254.69;;;3.74;89.49
28935;BME280;16044;52.726;-2.108;2023-02-01T04:23:33;101253.22;;;3.69;89.88
28935;BME280;16044;52.726;-2.108;2023-02-01T04:26:01;101255.03;;;3.69;90.03
28935;BME280;16044;52.726;-2.108;2023-02-01T04:28:30;101260.50;;;3.67;90.73
28935;BME280;16044;52.726;-2.108;2023-02-01T04:30:57;101267.72;;;3.67;90.68
28935;BME280;16044;52.726;-2.108;2023-02-01T04:33:24;101270.72;;;3.62;91.28
28935;BME280;16044;52.726;-2.108;2023-02-01T04:35:51;101272.09;;;3.68;91.16
28935;BME280;16044;52.726;-2.108;2023-02-01T04:38:18;101272.72;;;3.71;91.09
28935;BME280;16044;52.726;-2.108;2023-02-01T04:40:47;101264.69;;;3.71;91.23
28935;BME280;16044;52.726;-2.108;2023-02-01T04:43:16;101265.78;;;3.69;91.58
28935;BME280;16044;52.726;-2.108;2023-02-01T04:45:49;101263.31;;;3.66;92.08
28935;BME280;16044;52.726;-2.108;2023-02-01T04:48:18;101260.41;;;3.69;91.78
28935;BME280;16044;52.726;-2.108;2023-02-01T04:50:46;101260.31;;;3.70;92.21
28935;BME280;16044;52.726;-2.108;2023-02-01T04:53:15;101247.84;;;3.69;92.47
28935;BME280;16044;52.726;-2.108;2023-02-01T04:55:48;101249.56;;;3.70;92.93
28935;BME280;16044;52.726;-2.108;2023-02-01T04:58:16;101257.38;;;3.74;92.75
28935;BME280;16044;52.726;-2.108;2023-02-01T05:00:43;101243.84;;;3.75;93.14
28935;BME280;16044;52.726;-2.108;2023-02-01T05:03:10;101229.59;;;3.75;93.82
28935;BME280;16044;52.726;-2.108;2023-02-01T05:05:36;101233.03;;;3.77;93.80
28935;BME280;16044;52.726;-2.108;2023-02-01T05:08:03;101230.84;;;3.82;93.78
28935;BME280;16044;52.726;-2.108;2023-02-01T05:10:30;101230.09;;;3.80;94.25
28935;BME280;16044;52.726;-2.108;2023-02-01T05:12:57;101227.19;;;3.83;94.16
28935;BME280;16044;52.726;-2.108;2023-02-01T05:15:42;101230.50;;;3.86;94.17
28935;BME280;16044;52.726;-2.108;2023-02-01T05:18:09;101226.72;;;3.89;94.20
28935;BME280;16044;52.726;-2.108;2023-02-01T05:20:36;101232.56;;;3.83;94.53
28935;BME280;16044;52.726;-2.108;2023-02-01T05:23:03;101234.03;;;3.87;94.43
28935;BME280;16044;52.726;-2.108;2023-02-01T05:25:30;101236.81;;;3.85;94.74
28935;BME280;16044;52.726;-2.108;2023-02-01T05:27:57;101241.34;;;3.85;94.82
28935;BME280;16044;52.726;-2.108;2023-02-01T05:30:23;101233.09;;;3.88;95.32
28935;BME280;16044;52.726;-2.108;2023-02-01T05:32:52;101231.50;;;3.97;95.23
28935;BME280;16044;52.726;-2.108;2023-02-01T05:35:19;101230.66;;;3.96;95.17
28935;BME280;16044;52.726;-2.108;2023-02-01T05:37:46;101240.06;;;4.02;95.09
28935;BME280;16044;52.726;-2.108;2023-02-01T05:40:13;101222.88;;;4.04;95.19
28935;BME280;16044;52.726;-2.108;2023-02-01T05:42:40;101219.97;;;4.07;95.24
28935;BME280;16044;52.726;-2.108;2023-02-01T05:45:07;101209.88;;;4.11;94.99
28935;BME280;16044;52.726;-2.108;2023-02-01T05:47:34;101206.22;;;4.12;94.98
28935;BME280;16044;52.726;-2.108;2023-02-01T05:50:02;101203.41;;;4.14;94.89
28935;BME280;16044;52.726;-2.108;2023-02-01T05:52:30;101211.97;;;4.19;94.58
28935;BME280;16044;52.726;-2.108;2023-02-01T05:54:57;101208.31;;;4.20;94.22
28935;BME280;16044;52.726;-2.108;2023-02-01T05:57:24;101214.44;;;4.22;94.38
28935;BME280;16044;52.726;-2.108;2023-02-01T05:59:51;101217.09;;;4.22;94.15
28935;BME280;16044;52.726;-2.108;2023-02-01T06:02:18;101226.00;;;4.22;94.14
28935;BME280;16044;52.726;-2.108;2023-02-01T06:04:45;101222.22;;;4.25;93.81
28935;BME280;16044;52.726;-2.108;2023-02-01T06:07:12;101230.28;;;4.25;93.93
28935;BME280;16044;52.726;-2.108;2023-02-01T06:09:39;101230.16;;;4.26;93.56
28935;BME280;16044;52.726;-2.108;2023-02-01T06:12:06;101233.84;;;4.25;93.72
28935;BME280;16044;52.726;-2.108;2023-02-01T06:14:33;101243.47;;;4.28;93.53
28935;BME280;16044;52.726;-2.108;2023-02-01T06:17:00;101237.09;;;4.29;93.69
28935;BME280;16044;52.726;-2.108;2023-02-01T06:19:27;101238.94;;;4.28;93.38
28935;BME280;16044;52.726;-2.108;2023-02-01T06:21:54;101232.00;;;4.26;93.67
28935;BME280;16044;52.726;-2.108;2023-02-01T06:24:21;101236.38;;;4.27;93.79
28935;BME280;16044;52.726;-2.108;2023-02-01T06:26:48;101227.38;;;4.28;93.53
28935;BME280;16044;52.726;-2.108;2023-02-01T06:29:15;101236.53;;;4.25;93.58
28935;BME280;16044;52.726;-2.108;2023-02-01T06:31:42;101240.16;;;4.24;93.59
28935;BME280;16044;52.726;-2.108;2023-02-01T06:34:09;101238.69;;;4.20;93.92
28935;BME280;16044;52.726;-2.108;2023-02-01T06:36:36;101251.25;;;4.20;93.93
28935;BME280;16044;52.726;-2.108;2023-02-01T06:39:03;101251.38;;;4.18;94.37
28935;BME280;16044;52.726;-2.108;2023-02-01T06:41:30;101252.94;;;4.21;94.63
28935;BME280;16044;52.726;-2.108;2023-02-01T06:43:57;101267.09;;;4.23;94.71
28935;BME280;16044;52.726;-2.108;2023-02-01T06:46:24;101255.31;;;4.25;94.84
28935;BME280;16044;52.726;-2.108;2023-02-01T06:48:51;101264.72;;;4.31;95.19
28935;BME280;16044;52.726;-2.108;2023-02-01T06:51:26;101258.88;;;4.37;95.05
28935;BME280;16044;52.726;-2.108;2023-02-01T06:53:55;101240.81;;;4.39;95.16
28935;BME280;16044;52.726;-2.108;2023-02-01T06:56:22;101239.81;;;4.40;95.18
28935;BME280;16044;52.726;-2.108;2023-02-01T06:58:50;101231.53;;;4.43;95.04
28935;BME280;16044;52.726;-2.108;2023-02-01T07:01:17;101233.28;;;4.44;95.13
28935;BME280;16044;52.726;-2.108;2023-02-01T07:03:49;101240.00;;;4.50;95.15
28935;BME280;16044;52.726;-2.108;2023-02-01T07:06:17;101242.41;;;4.53;95.16
28935;BME280;16044;52.726;-2.108;2023-02-01T07:08:45;101240.47;;;4.55;95.09
28935;BME280;16044;52.726;-2.108;2023-02-01T07:11:13;101236.72;;;4.58;94.74
28935;BME280;16044;52.726;-2.108;2023-02-01T07:13:41;101236.72;;;4.58;95.05
28935;BME280;16044;52.726;-2.108;2023-02-01T07:16:13;101232.31;;;4.57;94.81
28935;BME280;16044;52.726;-2.108;2023-02-01T07:18:42;101222.28;;;4.59;94.85
28935;BME280;16044;52.726;-2.108;2023-02-01T07:21:10;101220.47;;;4.59;94.90
28935;BME280;16044;52.726;-2.108;2023-02-01T07:23:37;101217.66;;;4.61;94.79
28935;BME280;16044;52.726;-2.108;2023-02-01T07:26:06;101223.03;;;4.61;95.04
28935;BME280;16044;52.726;-2.108;2023-02-01T07:28:35;101223.75;;;4.63;94.96
28935;BME280;16044;52.726;-2.108;2023-02-01T07:31:07;101221.06;;;4.63;94.65
28935;BME280;16044;52.726;-2.108;2023-02-01T07:33:36;101226.72;;;4.60;94.85
28935;BME280;16044;52.726;-2.108;2023-02-01T07:36:05;101221.34;;;4.60;94.81
28935;BME280;16044;52.726;-2.108;2023-02-01T07:38:33;101219.59;;;4.59;95.01
28935;BME280;16044;52.726;-2.108;2023-02-01T07:41:01;101216.81;;;4.60;95.01
28935;BME280;16044;52.726;-2.108;2023-02-01T07:43:30;101216.06;;;4.58;94.88
28935;BME280;16044;52.726;-2.108;2023-02-01T07:45:58;101207.66;;;4.63;94.71
28935;BME280;16044;52.726;-2.108;2023-02-01T07:48:26;101199.59;;;4.63;94.64
28935;BME280;16044;52.726;-2.108;2023-02-01T07:51:09;101198.63;;;4.64;94.64
28935;BME280;16044;52.726;-2.108;2023-02-01T07:53:38;101203.88;;;4.65;94.32
28935;BME280;16044;52.726;-2.108;2023-02-01T07:56:14;101212.56;;;4.69;94.23
28935;BME280;16044;52.726;-2.108;2023-02-01T07:58:42;101219.00;;;4.66;94.70
28935;BME280;16044;52.726;-2.108;2023-02-01T08:01:15;101214.13;;;4.72;94.67
28935;BME280;16044;52.726;-2.108;2023-02-01T08:03:53;101220.13;;;4.75;94.65
28935;BME280;16044;52.726;-2.108;2023-02-01T08:06:22;101216.84;;;4.83;94.62
28935;BME280;16044;52.726;-2.108;2023-02-01T08:08:50;101222.56;;;4.89;94.56
28935;BME280;16044;52.726;-2.108;2023-02-01T08:11:20;101208.66;;;4.96;94.67
28935;BME280;16044;52.726;-2.108;2023-02-01T08:13:48;101214.25;;;5.04;94.43
28935;BME280;16044;52.726;-2.108;2023-02-01T08:16:16;101209.38;;;5.09;94.09
28935;BME280;16044;52.726;-2.108;2023-02-01T08:18:44;101210.84;;;5.13;93.99
28935;BME280;16044;52.726;-2.108;2023-02-01T08:21:14;101202.28;;;5.19;93.77
28935;BME280;16044;52.726;-2.108;2023-02-01T08:23:42;101197.28;;;5.26;93.57
28935;BME280;16044;52.726;-2.108;2023-02-01T08:26:24;101198.13;;;5.26;93.53
28935;BME280;16044;52.726;-2.108;2023-02-01T08:29:03;101189.41;;;5.34;92.96
28935;BME280;16044;52.726;-2.108;2023-02-01T08:31:31;101190.66;;;5.30;92.82
28935;BME280;16044;52.726;-2.108;2023-02-01T08:34:00;101192.34;;;5.31;92.38
28935;BME280;16044;52.726;-2.108;2023-02-01T08:36:30;101189.94;;;5.28;92.49
28935;BME280;16044;52.726;-2.108;2023-02-01T08:38:58;101187.38;;;5.26;92.30
28935;BME280;16044;52.726;-2.108;2023-02-01T08:41:27;101188.22;;;5.27;92.14
28935;BME280;16044;52.726;-2.108;2023-02-01T08:43:56;101187.13;;;5.30;91.98
28935;BME280;16044;52.726;-2.108;2023-02-01T08:46:24;101193.59;;;5.27;92.16
28935;BME280;16044;52.726;-2.108;2023-02-01T08:48:51;101190.53;;;5.32;91.91
28935;BME280;16044;52.726;-2.108;2023-02-01T08:51:20;101185.03;;;5.33;91.67
28935;BME280;16044;52.726;-2.108;2023-02-01T08:53:48;101184.88;;;5.35;91.91
28935;BME280;16044;52.726;-2.108;2023-02-01T08:56:17;101182.94;;;5.37;91.68
28935;BME280;16044;52.726;-2.108;2023-02-01T08:58:45;101178.16;;;5.40;91.46
28935;BME280;16044;52.726;-2.108;2023-02-01T09:01:16;101170.09;;;5.40;91.56
28935;BME280;16044;52.726;-2.108;2023-02-01T09:03:44;101174.84;;;5.48;91.17
28935;BME280;16044;52.726;-2.108;2023-02-01T09:06:13;101179.72;;;5.54;90.87
28935;BME280;16044;52.726;-2.108;2023-02-01T09:08:41;101175.78;;;5.58;90.72
28935;BME280;16044;52.726;-2.108;2023-02-01T09:11:12;101176.00;;;5.66;90.33
28935;BME280;16044;52.726;-2.108;2023-02-01T09:13:48;101179.41;;;5.69;90.31
28935;BME280;16044;52.726;-2.108;2023-02-01T09:16:15;101178.78;;;5.76;90.14
28935;BME280;16044;52.726;-2.108;2023-02-01T09:18:42;101183.25;;;5.87;89.04
28935;BME280;16044;52.726;-2.108;2023-02-01T09:21:27;101179.06;;;5.94;88.81
28935;BME280;16044;52.726;-2.108;2023-02-01T09:23:54;101181.28;;;6.00;88.68
28935;BME280;16044;52.726;-2.108;2023-02-01T09:26:21;101187.00;;;6.07;88.13
28935;BME280;16044;52.726;-2.108;2023-02-01T09:28:57;101186.47;;;6.13;88.00
28935;BME280;16044;52.726;-2.108;2023-02-01T09:31:25;101186.06;;;6.18;87.89
28935;BME280;16044;52.726;-2.108;2023-02-01T09:33:52;101183.72;;;6.24;87.79
28935;BME280;16044;52.726;-2.108;2023-02-01T09:36:19;101183.31;;;6.29;87.53
28935;BME280;16044;52.726;-2.108;2023-02-01T09:38:46;101189.75;;;6.38;87.05
28935;BME280;16044;52.726;-2.108;2023-02-01T09:44:10;101188.84;;;6.49;86.65
28935;BME280;16044;52.726;-2.108;2023-02-01T09:46:40;101197.50;;;6.52;86.59
28935;BME280;16044;52.726;-2.108;2023-02-01T09:49:17;101195.25;;;6.57;86.68
28935;BME280;16044;52.726;-2.108;2023-02-01T09:51:48;101194.56;;;6.65;86.60
28935;BME280;16044;52.726;-2.108;2023-02-01T09:54:22;101187.41;;;6.75;86.38
28935;BME280;16044;52.726;-2.108;2023-02-01T09:56:56;101201.88;;;6.84;86.01
28935;BME280;16044;52.726;-2.108;2023-02-01T09:59:41;101194.84;;;6.93;85.94
28935;BME280;16044;52.726;-2.108;2023-02-01T10:02:14;101203.09;;;7.01;85.83
28935;BME280;16044;52.726;-2.108;2023-02-01T10:04:44;101204.00;;;7.11;85.53
28935;BME280;16044;52.726;-2.108;2023-02-01T10:07:47;101202.47;;;7.18;85.17
28935;BME280;16044;52.726;-2.108;2023-02-01T10:10:43;101204.06;;;7.31;84.64
28935;BME280;16044;52.726;-2.108;2023-02-01T10:16:02;101211.31;;;7.40;84.29
28935;BME280;16044;52.726;-2.108;2023-02-01T10:21:31;101215.44;;;7.44;84.24
28935;BME280;16044;52.726;-2.108;2023-02-01T10:24:17;101214.88;;;7.50;83.27
28935;BME280;16044;52.726;-2.108;2023-02-01T10:27:21;101216.59;;;7.51;82.91
28935;BME280;16044;52.726;-2.108;2023-02-01T10:29:59;101230.53;;;7.56;83.35
28935;BME280;16044;52.726;-2.108;2023-02-01T10:32:33;101227.97;;;7.55;83.08
28935;BME280;16044;52.726;-2.108;2023-02-01T10:35:11;101233.38;;;7.55;82.60
28935;BME280;16044;52.726;-2.108;2023-02-01T10:37:42;101234.22;;;7.55;82.28
28935;BME280;16044;52.726;-2.108;2023-02-01T10:42:43;101249.66;;;7.44;82.45
28935;BME280;16044;52.726;-2.108;2023-02-01T10:45:17;101251.94;;;7.48;82.22
28935;BME280;16044;52.726;-2.108;2023-02-01T10:47:48;101256.34;;;7.49;82.33
28935;BME280;16044;52.726;-2.108;2023-02-01T10:53:05;101266.72;;;7.54;81.93
28935;BME280;16044;52.726;-2.108;2023-02-01T10:58:20;101261.91;;;7.57;81.91
28935;BME280;16044;52.726;-2.108;2023-02-01T11:01:02;101264.91;;;7.64;81.55
28935;BME280;16044;52.726;-2.108;2023-02-01T11:03:39;101264.47;;;7.69;81.57
28935;BME280;16044;52.726;-2.108;2023-02-01T11:06:24;101254.56;;;7.79;81.42
28935;BME280;16044;52.726;-2.108;2023-02-01T11:08:57;101263.66;;;7.78;81.01
28935;BME280;16044;52.726;-2.108;2023-02-01T11:11:27;101249.00;;;7.80;81.50
28935;BME280;16044;52.726;-2.108;2023-02-01T11:14:14;101251.72;;;7.80;80.91
28935;BME280;16044;52.726;-2.108;2023-02-01T11:16:52;101255.28;;;7.81;81.16
28935;BME280;16044;52.726;-2.108;2023-02-01T11:19:20;101258.69;;;7.83;81.46
28935;BME280;16044;52.726;-2.108;2023-02-01T11:21:51;101254.13;;;7.84;81.35
28935;BME280;16044;52.726;-2.108;2023-02-01T11:24:30;101258.56;;;7.85;81.07
28935;BME280;16044;52.726;-2.108;2023-02-01T11:27:01;101262.25;;;7.84;81.04
28935;BME280;16044;52.726;-2.108;2023-02-01T11:29:37;101256.84;;;7.93;81.52
28935;BME280;16044;52.726;-2.108;2023-02-01T11:32:07;101264.09;;;8.03;81.88
28935;BME280;16044;52.726;-2.108;2023-02-01T11:34:40;101254.00;;;8.14;81.17
28935;BME280;16044;52.726;-2.108;2023-02-01T11:37:28;101273.91;;;8.23;80.41
28935;BME280;16044;52.726;-2.108;2023-02-01T11:39:59;101271.22;;;8.33;79.88
28935;BME280;16044;52.726;-2.108;2023-02-01T11:42:28;101272.22;;;8.32;79.81
28935;BME280;16044;52.726;-2.108;2023-02-01T11:45:20;101280.72;;;8.37;79.46
28935;BME280;16044;52.726;-2.108;2023-02-01T11:47:53;101270.81;;;8.37;79.67
28935;BME280;16044;52.726;-2.108;2023-02-01T11:54:02;101268.81;;;8.49;79.00
28935;BME280;16044;52.726;-2.108;2023-02-01T12:00:05;101280.91;;;8.45;78.58
28935;BME280;16044;52.726;-2.108;2023-02-01T12:05:44;101275.53;;;8.45;78.20
28935;BME280;16044;52.726;-2.108;2023-02-01T12:46:15;101245.59;;;9.41;73.81
28935;BME280;16044;52.726;-2.108;2023-02-01T12:49:01;101241.63;;;9.45;74.20
28935;BME280;16044;52.726;-2.108;2023-02-01T12:51:40;101239.00;;;9.53;73.51
28935;BME280;16044;52.726;-2.108;2023-02-01T12:54:45;101239.53;;;9.57;74.19
28935;BME280;16044;52.726;-2.108;2023-02-01T12:57:25;101238.63;;;9.66;72.99
28935;BME280;16044;52.726;-2.108;2023-02-01T13:00:16;101230.38;;;9.68;72.97
28935;BME280;16044;52.726;-2.108;2023-02-01T13:06:13;101234.91;;;9.67;72.96
28935;BME280;16044;52.726;-2.108;2023-02-01T13:11:29;101221.47;;;9.75;72.78
28935;BME280;16044;52.726;-2.108;2023-02-01T13:14:36;101217.69;;;9.86;72.17
28935;BME280;16044;52.726;-2.108;2023-02-01T13:17:19;101217.59;;;9.96;72.25
28935;BME280;16044;52.726;-2.108;2023-02-01T13:23:11;101219.59;;;9.94;71.67
28935;BME280;16044;52.726;-2.108;2023-02-01T13:25:48;101218.91;;;9.92;72.00
28935;BME280;16044;52.726;-2.108;2023-02-01T13:28:23;101209.31;;;9.98;72.24
28935;BME280;16044;52.726;-2.108;2023-02-01T13:31:03;101208.34;;;9.99;71.66
28935;BME280;16044;52.726;-2.108;2023-02-01T13:33:50;101217.53;;;10.06;71.21
28935;BME280;16044;52.726;-2.108;2023-02-01T13:36:31;101224.34;;;10.10;70.73
28935;BME280;16044;52.726;-2.108;2023-02-01T13:42:24;101225.34;;;10.09;69.88
28935;BME280;16044;52.726;-2.108;2023-02-01T13:44:59;101227.50;;;10.05;69.63
28935;BME280;16044;52.726;-2.108;2023-02-01T13:52:57;101243.44;;;9.90;70.79
28935;BME280;16044;52.726;-2.108;2023-02-01T13:55:33;101229.53;;;9.85;71.10
28935;BME280;16044;52.726;-2.108;2023-02-01T13:58:06;101246.00;;;9.74;72.00
28935;BME280;16044;52.726;-2.108;2023-02-01T14:00:41;101239.25;;;9.78;71.24
28935;BME280;16044;52.726;-2.108;2023-02-01T14:03:15;101253.66;;;9.79;71.59
28935;BME280;16044;52.726;-2.108;2023-02-01T14:08:39;101249.06;;;9.79;72.44
28935;BME280;16044;52.726;-2.108;2023-02-01T14:16:44;101243.19;;;9.66;72.95
28935;BME280;16044;52.726;-2.108;2023-02-01T14:19:36;101245.50;;;9.61;73.18
28935;BME280;16044;52.726;-2.108;2023-02-01T14:24:57;101257.72;;;9.65;72.79
28935;BME280;16044;52.726;-2.108;2023-02-01T14:27:30;101237.19;;;9.72;72.54
28935;BME280;16044;52.726;-2.108;2023-02-01T14:30:06;101253.72;;;9.69;71.81
28935;BME280;16044;52.726;-2.108;2023-02-01T14:32:37;101250.00;;;9.70;71.90
28935;BME280;16044;52.726;-2.108;2023-02-01T14:35:18;101244.13;;;9.74;71.63
28935;BME280;16044;52.726;-2.108;2023-02-01T14:38:00;101237.72;;;9.75;71.64
28935;BME280;16044;52.726;-2.108;2023-02-01T14:40:29;101246.75;;;9.66;71.08
28935;BME280;16044;52.726;-2.108;2023-02-01T14:42:57;101251.16;;;9.67;71.69
28935;BME280;16044;52.726;-2.108;2023-02-01T14:50:39;101254.63;;;9.60;71.81
28935;BME280;16044;52.726;-2.108;2023-02-01T14:53:20;101258.03;;;9.62;71.76
28935;BME280;16044;52.726;-2.108;2023-02-01T14:56:13;101277.03;;;9.52;72.49
28935;BME280;16044;52.726;-2.108;2023-02-01T14:58:44;101267.94;;;9.53;72.52
28935;BME280;16044;52.726;-2.108;2023-02-01T15:01:34;101269.75;;;9.52;72.31
28935;BME280;16044;52.726;-2.108;2023-02-01T15:04:12;101278.00;;;9.61;72.26
28935;BME280;16044;52.726;-2.108;2023-02-01T15:06:52;101281.53;;;9.61;73.16
28935;BME280;16044;52.726;-2.108;2023-02-01T15:12:15;101301.53;;;9.50;72.83
28935;BME280;16044;52.726;-2.108;2023-02-01T15:15:13;101295.41;;;9.48;72.08
28935;BME280;16044;52.726;-2.108;2023-02-01T15:17:57;101305.13;;;9.41;72.49
28935;BME280;16044;52.726;-2.108;2023-02-01T15:20:28;101313.09;;;9.43;72.45
28935;BME280;16044;52.726;-2.108;2023-02-01T15:23:03;101312.53;;;9.39;72.60
28935;BME280;16044;52.726;-2.108;2023-02-01T15:25:40;101321.41;;;9.31;73.27
28935;BME280;16044;52.726;-2.108;2023-02-01T15:28:13;101311.47;;;9.32;73.43
28935;BME280;16044;52.726;-2.108;2023-02-01T15:30:54;101320.72;;;9.29;73.91